createdAt,value
2022-09-26T00:01:26.901Z,100.00
2022-09-26T00:03:57.761Z,100.00
2022-09-26T00:06:27.115Z,100.00
2022-09-26T00:08:55.835Z,100.00
2022-09-26T00:11:26.197Z,100.00
2022-09-26T00:13:55.639Z,100.00
2022-09-26T00:16:24.684Z,100.00
2022-09-26T00:18:53.786Z,100.00
2022-09-26T00:21:24.261Z,100.00
2022-09-26T00:23:52.886Z,100.00
2022-09-26T00:26:22.604Z,100.00
2022-09-26T00:28:51.328Z,100.00
2022-09-26T00:31:21.001Z,100.00
2022-09-26T00:33:49.187Z,100.00
2022-09-26T00:36:17.467Z,100.00
2022-09-26T00:38:46.953Z,100.00
2022-09-26T00:41:16.195Z,100.00
2022-09-26T00:43:45.938Z,100.00
2022-09-26T00:46:24.396Z,100.00
2022-09-26T00:48:56.695Z,100.00
2022-09-26T00:51:24.642Z,100.00
2022-09-26T00:53:55.750Z,100.00
2022-09-26T00:56:27.410Z,100.00
2022-09-26T00:59:01.819Z,100.00
2022-09-26T01:01:29.978Z,100.00
2022-09-26T01:03:59.519Z,100.00
2022-09-26T01:06:27.480Z,100.00
2022-09-26T01:09:00.067Z,100.00
2022-09-26T01:11:31.569Z,100.00
2022-09-26T01:14:00.260Z,100.00
2022-09-26T01:16:28.537Z,100.00
2022-09-26T01:18:56.962Z,100.00
2022-09-26T01:21:43.728Z,100.00
2022-09-26T01:24:49.478Z,100.00
2022-09-26T01:27:34.818Z,100.00
2022-09-26T01:30:11.250Z,100.00
2022-09-26T01:32:57.200Z,100.00
2022-09-26T01:35:47.538Z,100.00
2022-09-26T01:38:25.138Z,100.00
2022-09-26T01:41:06.288Z,100.00
2022-09-26T01:43:41.794Z,100.00
2022-09-26T01:46:20.695Z,100.00
2022-09-26T01:48:55.302Z,100.00
2022-09-26T01:51:29.363Z,100.00
2022-09-26T01:54:02.993Z,100.00
2022-09-26T01:56:36.699Z,100.00
2022-09-26T01:59:09.610Z,100.00
2022-09-26T02:01:44.338Z,100.00
2022-09-26T02:04:16.035Z,100.00
2022-09-26T02:06:48.536Z,100.00
2022-09-26T02:09:21.068Z,100.00
2022-09-26T02:11:52.039Z,100.00
2022-09-26T02:14:26.570Z,100.00
2022-09-26T02:17:01.399Z,100.00
2022-09-26T02:19:32.879Z,100.00
2022-09-26T02:22:01.978Z,100.00
2022-09-26T02:24:30.242Z,100.00
2022-09-26T02:26:58.418Z,100.00
2022-09-26T02:29:27.046Z,100.00
2022-09-26T02:31:59.410Z,100.00
2022-09-26T02:34:27.810Z,100.00
2022-09-26T02:36:58.077Z,100.00
2022-09-26T02:39:26.053Z,100.00
2022-09-26T02:42:01.641Z,100.00
2022-09-26T02:44:40.599Z,100.00
2022-09-26T02:47:34.712Z,100.00
2022-09-26T02:50:22.757Z,100.00
2022-09-26T02:53:01.291Z,100.00
2022-09-26T02:55:40.550Z,100.00
2022-09-26T02:58:16.305Z,100.00
2022-09-26T03:00:54.368Z,100.00
2022-09-26T03:03:30.531Z,100.00
2022-09-26T03:05:59.776Z,100.00
2022-09-26T03:08:29.439Z,100.00
2022-09-26T03:10:59.988Z,100.00
2022-09-26T03:13:28.982Z,100.00
2022-09-26T03:15:59.730Z,100.00
2022-09-26T03:18:33.125Z,100.00
2022-09-26T03:21:01.141Z,100.00
2022-09-26T03:23:29.522Z,100.00
2022-09-26T03:26:03.765Z,100.00
2022-09-26T03:28:36.842Z,100.00
2022-09-26T03:31:05.866Z,100.00
2022-09-26T03:33:35.265Z,100.00
2022-09-26T03:36:06.136Z,100.00
2022-09-26T03:38:34.104Z,100.00
2022-09-26T03:41:02.489Z,100.00
2022-09-26T03:43:31.401Z,100.00
2022-09-26T03:46:05.259Z,100.00
2022-09-26T03:48:34.842Z,100.00
2022-09-26T03:51:03.666Z,100.00
2022-09-26T03:53:33.024Z,100.00
2022-09-26T03:56:05.193Z,100.00
2022-09-26T03:58:33.213Z,100.00
2022-09-26T04:01:05.364Z,100.00
2022-09-26T04:03:35.990Z,100.00
2022-09-26T04:06:04.336Z,100.00
2022-09-26T04:08:32.341Z,100.00
2022-09-26T04:11:04.179Z,100.00
2022-09-26T04:16:21.202Z,100.00
2022-09-26T04:18:50.905Z,100.00
2022-09-26T04:21:18.830Z,100.00
2022-09-26T04:23:46.749Z,100.00
2022-09-26T04:26:22.849Z,100.00
2022-09-26T04:28:52.291Z,100.00
2022-09-26T04:31:21.434Z,100.00
2022-09-26T04:33:51.299Z,100.00
2022-09-26T04:36:19.165Z,100.00
2022-09-26T04:38:46.990Z,100.00
2022-09-26T04:41:16.521Z,100.00
2022-09-26T04:43:44.434Z,100.00
2022-09-26T04:46:18.619Z,100.00
2022-09-26T04:48:50.868Z,100.00
2022-09-26T04:51:20.461Z,100.00
2022-09-26T04:53:48.874Z,100.00
2022-09-26T04:56:17.932Z,100.00
2022-09-26T04:58:46.834Z,100.00
2022-09-26T05:01:17.366Z,100.00
2022-09-26T05:03:46.137Z,100.00
2022-09-26T05:06:17.562Z,100.00
2022-09-26T05:08:48.489Z,100.00
2022-09-26T05:11:18.011Z,100.00
2022-09-26T05:13:49.049Z,100.00
2022-09-26T05:16:20.391Z,100.00
2022-09-26T05:18:50.971Z,100.00
2022-09-26T05:21:20.988Z,100.00
2022-09-26T05:24:06.203Z,100.00
2022-09-26T05:26:41.441Z,100.00
2022-09-26T05:29:09.770Z,100.00
2022-09-26T05:31:38.355Z,100.00
2022-09-26T05:34:07.559Z,100.00
2022-09-26T05:36:37.429Z,100.00
2022-09-26T05:39:06.004Z,100.00
2022-09-26T05:41:33.571Z,100.00
2022-09-26T05:44:01.734Z,100.00
2022-09-26T05:46:29.583Z,100.00
2022-09-26T05:48:57.545Z,100.00
2022-09-26T05:51:25.382Z,100.00
2022-09-26T05:53:54.489Z,100.00
2022-09-26T05:56:23.537Z,100.00
2022-09-26T05:58:51.407Z,100.00
2022-09-26T06:01:19.919Z,100.00
2022-09-26T06:03:48.473Z,100.00
2022-09-26T06:06:18.182Z,100.00
2022-09-26T06:08:46.479Z,100.00
2022-09-26T06:11:18.228Z,100.00
2022-09-26T06:13:46.770Z,100.00
2022-09-26T06:16:18.531Z,100.00
2022-09-26T06:18:47.857Z,100.00
2022-09-26T06:21:17.550Z,100.00
2022-09-26T06:23:46.412Z,100.00
2022-09-26T06:26:18.366Z,100.00
2022-09-26T06:28:47.185Z,100.00
2022-09-26T06:31:18.318Z,100.00
2022-09-26T06:33:51.524Z,100.00
2022-09-26T06:36:19.420Z,100.00
2022-09-26T06:38:47.217Z,100.00
2022-09-26T06:41:16.534Z,100.00
2022-09-26T06:43:45.569Z,100.00
2022-09-26T06:46:13.428Z,100.00
2022-09-26T06:48:41.223Z,100.00
2022-09-26T06:51:13.899Z,100.00
2022-09-26T06:53:42.623Z,100.00
2022-09-26T06:56:10.985Z,100.00
2022-09-26T06:58:40.250Z,100.00
2022-09-26T07:01:08.906Z,100.00
2022-09-26T07:03:38.636Z,100.00
2022-09-26T07:06:09.553Z,100.00
2022-09-26T07:09:00.951Z,100.00
2022-09-26T07:14:16.896Z,100.00
2022-09-26T07:16:45.362Z,100.00
2022-09-26T07:19:13.773Z,100.00
2022-09-26T07:21:41.726Z,100.00
2022-09-26T07:24:14.012Z,100.00
2022-09-26T07:26:42.074Z,100.00
2022-09-26T07:29:10.008Z,100.00
2022-09-26T07:31:39.644Z,100.00
2022-09-26T07:34:08.728Z,100.00
2022-09-26T07:36:37.211Z,100.00
2022-09-26T07:39:05.162Z,100.00
2022-09-26T07:41:33.069Z,100.00
2022-09-26T07:47:07.692Z,100.00
2022-09-26T07:49:52.943Z,100.00
2022-09-26T07:52:22.583Z,100.00
2022-09-26T07:54:50.558Z,100.00
2022-09-26T07:57:19.599Z,100.00
2022-09-26T07:59:49.736Z,100.00
2022-09-26T08:02:24.022Z,100.00
2022-09-26T08:04:58.799Z,100.00
2022-09-26T08:07:29.216Z,100.00
2022-09-26T08:09:57.360Z,100.00
2022-09-26T08:12:27.000Z,100.00
2022-09-26T08:14:54.974Z,100.00
2022-09-26T08:17:24.181Z,100.00
2022-09-26T08:19:51.969Z,100.00
2022-09-26T08:22:19.829Z,100.00
2022-09-26T08:24:49.767Z,100.00
2022-09-26T08:27:18.034Z,100.00
2022-09-26T08:29:49.346Z,100.00
2022-09-26T08:32:17.518Z,100.00
2022-09-26T08:34:47.197Z,100.00
2022-09-26T08:37:16.085Z,100.00
2022-09-26T08:39:43.945Z,100.00
2022-09-26T08:42:33.939Z,100.00
2022-09-26T08:45:47.487Z,100.00
2022-09-26T08:48:29.235Z,100.00
2022-09-26T08:51:07.146Z,100.00
2022-09-26T08:53:44.766Z,100.00
2022-09-26T08:56:20.842Z,100.00
2022-09-26T08:58:52.320Z,100.00
2022-09-26T09:01:27.950Z,100.00
2022-09-26T09:04:03.048Z,100.00
2022-09-26T09:06:33.545Z,100.00
2022-09-26T09:09:01.906Z,100.00
2022-09-26T09:11:50.691Z,100.00
2022-09-26T09:14:41.861Z,100.00
2022-09-26T09:17:18.623Z,100.00
2022-09-26T09:19:57.012Z,100.00
2022-09-26T09:22:46.436Z,100.00
2022-09-26T09:25:20.863Z,100.00
2022-09-26T09:28:08.050Z,100.00
2022-09-26T09:30:43.788Z,100.00
2022-09-26T09:33:15.817Z,100.00
2022-09-26T09:35:48.188Z,100.00
2022-09-26T09:38:21.110Z,100.00
2022-09-26T09:40:59.237Z,100.00
2022-09-26T09:43:33.047Z,100.00
2022-09-26T09:46:05.316Z,100.00
2022-09-26T09:48:33.162Z,100.00
2022-09-26T09:51:10.600Z,100.00
2022-09-26T09:53:55.889Z,100.00
2022-09-26T09:56:33.939Z,100.00
2022-09-26T09:59:20.286Z,100.00
2022-09-26T10:01:54.700Z,100.00
2022-09-26T10:04:33.944Z,100.00
2022-09-26T10:07:03.978Z,100.00
2022-09-26T10:09:40.689Z,100.00
2022-09-26T10:12:16.701Z,99.53
2022-09-26T10:14:50.415Z,100.00
2022-09-26T10:17:23.036Z,97.72
2022-09-26T10:19:51.925Z,94.39
2022-09-26T10:22:27.251Z,93.43
2022-09-26T10:25:03.793Z,91.75
2022-09-26T10:27:38.133Z,90.31
2022-09-26T10:30:25.695Z,87.74
2022-09-26T10:32:57.005Z,88.28
2022-09-26T10:35:26.447Z,87.05
2022-09-26T10:38:06.678Z,83.03
2022-09-26T10:40:45.857Z,78.46
2022-09-26T10:43:25.984Z,80.12
2022-09-26T10:45:57.391Z,82.50
2022-09-26T10:48:34.891Z,83.72
2022-09-26T10:51:03.057Z,85.87
2022-09-26T10:53:37.041Z,85.61
2022-09-26T10:56:10.945Z,82.33
2022-09-26T10:58:42.230Z,81.45
2022-09-26T11:01:20.957Z,82.42
2022-09-26T11:03:50.604Z,81.37
2022-09-26T11:06:32.931Z,81.75
2022-09-26T11:09:03.435Z,86.58
2022-09-26T11:11:37.443Z,85.43
2022-09-26T11:14:07.619Z,83.94
2022-09-26T11:16:50.159Z,87.88
2022-09-26T11:19:27.368Z,90.62
2022-09-26T11:22:07.299Z,86.70
2022-09-26T11:24:45.896Z,86.70
2022-09-26T11:27:24.455Z,86.17
2022-09-26T11:29:58.878Z,88.52
2022-09-26T11:32:31.307Z,87.56
2022-09-26T11:35:03.682Z,91.89
2022-09-26T11:38:00.111Z,87.97
2022-09-26T11:40:40.692Z,87.87
2022-09-26T11:43:23.001Z,86.23
2022-09-26T11:46:05.243Z,84.37
2022-09-26T11:48:52.152Z,82.66
2022-09-26T11:51:34.560Z,79.47
2022-09-26T11:54:29.120Z,80.26
2022-09-26T11:57:10.575Z,78.70
2022-09-26T12:00:02.674Z,77.47
2022-09-26T12:02:47.410Z,78.29
2022-09-26T12:05:27.186Z,78.65
2022-09-26T12:08:09.027Z,73.50
2022-09-26T12:10:47.892Z,75.34
2022-09-26T12:13:29.860Z,75.04
2022-09-26T12:16:09.366Z,78.56
2022-09-26T12:18:47.014Z,79.78
2022-09-26T12:21:26.941Z,81.62
2022-09-26T12:23:57.200Z,81.97
2022-09-26T12:26:34.664Z,84.61
2022-09-26T12:29:16.077Z,86.95
2022-09-26T12:31:55.658Z,88.94
2022-09-26T12:34:46.649Z,89.54
2022-09-26T12:37:33.819Z,90.78
2022-09-26T12:40:19.286Z,88.47
2022-09-26T12:43:04.714Z,88.57
2022-09-26T12:45:54.128Z,90.34
2022-09-26T12:48:38.717Z,87.96
2022-09-26T12:51:24.997Z,89.47
2022-09-26T12:54:13.256Z,88.40
2022-09-26T12:56:49.330Z,87.02
2022-09-26T12:59:38.407Z,85.54
2022-09-26T13:02:41.700Z,80.65
2022-09-26T13:05:55.401Z,78.92
2022-09-26T13:08:33.205Z,81.07
2022-09-26T13:11:13.825Z,82.85
2022-09-26T13:14:09.737Z,84.02
2022-09-26T13:16:50.859Z,86.76
2022-09-26T13:19:25.038Z,86.17
2022-09-26T13:22:00.052Z,84.92
2022-09-26T13:24:34.683Z,81.60
2022-09-26T13:27:10.378Z,82.04
2022-09-26T13:29:40.736Z,82.59
2022-09-26T13:32:17.723Z,78.38
2022-09-26T13:34:51.739Z,75.53
2022-09-26T13:37:38.395Z,74.95
2022-09-26T13:40:21.181Z,76.08
2022-09-26T13:43:00.732Z,75.74
2022-09-26T13:45:44.155Z,76.94
2022-09-26T13:48:18.984Z,79.45
2022-09-26T13:50:54.725Z,81.35
2022-09-26T13:53:32.350Z,81.11
2022-09-26T13:56:48.454Z,79.60
2022-09-26T13:59:34.522Z,80.61
2022-09-26T14:02:28.455Z,75.77
2022-09-26T14:05:30.505Z,76.94
2022-09-26T14:08:15.705Z,77.46
2022-09-26T14:10:54.670Z,76.28
2022-09-26T14:13:34.798Z,78.96
2022-09-26T14:16:05.346Z,77.92
2022-09-26T14:19:06.425Z,78.23
2022-09-26T14:21:40.257Z,80.54
2022-09-26T14:24:28.359Z,81.99
2022-09-26T14:27:05.751Z,82.37
2022-09-26T14:29:44.581Z,83.80
2022-09-26T14:32:17.668Z,84.31
2022-09-26T14:34:47.013Z,86.86
2022-09-26T14:37:30.636Z,86.25
2022-09-26T14:40:13.653Z,87.91
2022-09-26T14:43:22.655Z,87.34
2022-09-26T14:45:54.318Z,88.37
2022-09-26T14:48:35.771Z,88.15
2022-09-26T14:51:07.180Z,88.59
2022-09-26T14:53:40.089Z,86.95
2022-09-26T14:56:11.675Z,86.13
2022-09-26T14:58:52.691Z,83.51
2022-09-26T15:01:26.945Z,83.28
2022-09-26T15:03:58.769Z,82.19
2022-09-26T15:06:28.625Z,81.85
2022-09-26T15:08:59.280Z,79.76
2022-09-26T15:11:34.765Z,80.42
2022-09-26T15:14:15.981Z,79.36
2022-09-26T15:16:48.338Z,80.76
2022-09-26T15:19:21.475Z,81.05
2022-09-26T15:21:55.723Z,81.58
2022-09-26T15:24:26.685Z,81.43
2022-09-26T15:26:57.015Z,80.46
2022-09-26T15:29:26.717Z,79.10
2022-09-26T15:31:55.905Z,79.67
2022-09-26T15:34:30.573Z,80.13
2022-09-26T15:37:02.168Z,81.18
2022-09-26T15:39:41.985Z,81.29
2022-09-26T15:42:40.440Z,81.21
2022-09-26T15:45:26.115Z,81.66
2022-09-26T15:47:55.246Z,82.68
2022-09-26T15:50:28.096Z,83.32
2022-09-26T15:53:01.177Z,84.57
2022-09-26T15:55:33.539Z,86.86
2022-09-26T15:58:04.240Z,89.92
2022-09-26T16:00:36.895Z,90.92
2022-09-26T16:03:37.797Z,91.71
2022-09-26T16:06:15.236Z,95.88
2022-09-26T16:08:43.627Z,98.49
2022-09-26T16:11:11.560Z,100.00
2022-09-26T16:13:46.264Z,100.00
2022-09-26T16:16:19.723Z,100.00
2022-09-26T16:18:54.510Z,100.00
2022-09-26T16:21:24.350Z,100.00
2022-09-26T16:23:54.215Z,100.00
2022-09-26T16:26:30.066Z,100.00
2022-09-26T16:28:58.690Z,100.00
2022-09-26T16:31:31.272Z,100.00
2022-09-26T16:34:01.226Z,100.00
2022-09-26T16:36:31.410Z,100.00
2022-09-26T16:39:01.962Z,100.00
2022-09-26T16:44:33.834Z,100.00
2022-09-26T16:47:06.687Z,100.00
2022-09-26T16:49:45.678Z,100.00
2022-09-26T16:52:37.525Z,100.00
2022-09-26T16:55:07.216Z,100.00
2022-09-26T16:57:38.253Z,100.00
2022-09-26T17:00:33.120Z,100.00
2022-09-26T17:03:02.946Z,100.00
2022-09-26T17:05:31.135Z,100.00
2022-09-26T17:07:59.144Z,100.00
2022-09-26T17:10:27.823Z,100.00
2022-09-26T17:13:02.583Z,100.00
2022-09-26T17:15:32.309Z,100.00
2022-09-26T17:18:06.387Z,100.00
2022-09-26T17:20:34.312Z,100.00
2022-09-26T17:23:21.932Z,100.00
2022-09-26T17:25:55.334Z,100.00
2022-09-26T17:28:32.355Z,100.00
2022-09-26T17:31:06.269Z,100.00
2022-09-26T17:33:40.387Z,100.00
2022-09-26T17:36:10.997Z,100.00
2022-09-26T17:38:42.359Z,100.00
2022-09-26T17:41:12.531Z,100.00
2022-09-26T17:43:40.895Z,100.00
2022-09-26T17:46:15.596Z,100.00
2022-09-26T17:48:45.842Z,100.00
2022-09-26T17:51:14.518Z,100.00
2022-09-26T17:53:50.155Z,100.00
2022-09-26T17:56:18.959Z,100.00
2022-09-26T17:58:49.027Z,100.00
2022-09-26T18:01:23.288Z,100.00
2022-09-26T18:03:56.554Z,100.00
2022-09-26T18:06:27.589Z,100.00
2022-09-26T18:08:59.589Z,100.00
2022-09-26T18:11:28.199Z,100.00
2022-09-26T18:13:57.065Z,100.00
2022-09-26T18:16:25.820Z,100.00
2022-09-26T18:18:55.992Z,100.00
2022-09-26T18:21:26.279Z,100.00
2022-09-26T18:23:57.851Z,100.00
2022-09-26T18:26:31.118Z,100.00
2022-09-26T18:29:02.445Z,100.00
2022-09-26T18:31:32.792Z,100.00
2022-09-26T18:34:03.183Z,100.00
2022-09-26T18:36:33.444Z,100.00
2022-09-26T18:39:01.673Z,100.00
2022-09-26T18:41:30.104Z,100.00
2022-09-26T18:44:02.976Z,100.00
2022-09-26T18:46:31.520Z,100.00
2022-09-26T18:49:06.187Z,100.00
2022-09-26T18:51:35.529Z,100.00
2022-09-26T18:54:10.677Z,100.00
2022-09-26T18:56:57.000Z,100.00
2022-09-26T18:59:28.902Z,100.00
2022-09-26T19:01:58.373Z,100.00
2022-09-26T19:04:27.317Z,100.00
2022-09-26T19:07:00.916Z,100.00
2022-09-26T19:09:33.671Z,100.00
2022-09-26T19:12:02.219Z,100.00
2022-09-26T19:14:31.694Z,100.00
2022-09-26T19:17:00.510Z,100.00
2022-09-26T19:19:30.241Z,100.00
2022-09-26T19:22:02.294Z,100.00
2022-09-26T19:24:34.123Z,100.00
2022-09-26T19:27:06.586Z,100.00
2022-09-26T19:29:39.854Z,100.00
2022-09-26T19:32:13.764Z,100.00
2022-09-26T19:34:41.937Z,100.00
2022-09-26T19:37:14.250Z,100.00
2022-09-26T19:39:42.871Z,100.00
2022-09-26T19:42:11.118Z,100.00
2022-09-26T19:44:39.460Z,100.00
2022-09-26T19:47:10.710Z,100.00
2022-09-26T19:49:38.948Z,100.00
2022-09-26T19:52:15.900Z,100.00
2022-09-26T19:54:45.360Z,100.00
2022-09-26T19:57:17.074Z,100.00
2022-09-26T19:59:45.798Z,100.00
2022-09-26T20:02:18.288Z,100.00
2022-09-26T20:04:47.612Z,100.00
2022-09-26T20:07:20.834Z,100.00
2022-09-26T20:09:49.550Z,100.00
2022-09-26T20:12:17.488Z,100.00
2022-09-26T20:14:45.992Z,100.00
2022-09-26T20:17:22.163Z,100.00
2022-09-26T20:19:50.802Z,100.00
2022-09-26T20:22:24.848Z,100.00
2022-09-26T20:24:55.712Z,100.00
2022-09-26T20:27:25.618Z,100.00
2022-09-26T20:30:10.958Z,100.00
2022-09-26T20:32:41.442Z,100.00
2022-09-26T20:35:14.430Z,100.00
2022-09-26T20:37:44.912Z,100.00
2022-09-26T20:40:18.059Z,100.00
2022-09-26T20:42:51.709Z,100.00
2022-09-26T20:45:30.976Z,100.00
2022-09-26T20:48:01.102Z,100.00
2022-09-26T20:50:34.123Z,100.00
2022-09-26T20:53:03.826Z,100.00
2022-09-26T20:55:32.387Z,100.00
2022-09-26T20:58:00.618Z,100.00
2022-09-26T21:00:28.551Z,100.00
2022-09-26T21:02:57.278Z,100.00
2022-09-26T21:05:27.368Z,100.00
2022-09-26T21:07:57.872Z,100.00
2022-09-26T21:10:29.275Z,100.00
2022-09-26T21:12:57.905Z,100.00
2022-09-26T21:15:29.069Z,100.00
2022-09-26T21:17:59.124Z,100.00
2022-09-26T21:20:29.106Z,100.00
2022-09-26T21:22:58.313Z,100.00
2022-09-26T21:25:30.132Z,100.00
2022-09-26T21:28:01.059Z,100.00
2022-09-26T21:30:30.340Z,100.00
2022-09-26T21:32:59.932Z,100.00
2022-09-26T21:35:31.908Z,100.00
2022-09-26T21:38:02.077Z,100.00
2022-09-26T21:40:36.186Z,100.00
2022-09-26T21:43:10.615Z,100.00
2022-09-26T21:45:38.663Z,100.00
2022-09-26T21:48:06.752Z,100.00
2022-09-26T21:50:36.711Z,100.00
2022-09-26T21:53:10.993Z,100.00
2022-09-26T21:55:46.612Z,100.00
2022-09-26T21:58:21.338Z,100.00
2022-09-26T22:00:49.578Z,100.00
2022-09-26T22:03:17.944Z,100.00
2022-09-26T22:05:45.873Z,100.00
2022-09-26T22:08:13.847Z,100.00
2022-09-26T22:10:43.223Z,100.00
2022-09-26T22:13:11.184Z,100.00
2022-09-26T22:15:39.200Z,100.00
2022-09-26T22:18:07.207Z,100.00
2022-09-26T22:20:35.311Z,100.00
2022-09-26T22:23:03.221Z,100.00
2022-09-26T22:25:31.623Z,100.00
2022-09-26T22:28:00.926Z,100.00
2022-09-26T22:30:28.880Z,100.00
2022-09-26T22:32:56.884Z,100.00
2022-09-26T22:35:24.823Z,100.00
2022-09-26T22:37:52.782Z,100.00
2022-09-26T22:40:20.775Z,100.00
2022-09-26T22:42:50.915Z,100.00
2022-09-26T22:45:20.602Z,100.00
2022-09-26T22:47:48.634Z,100.00
2022-09-26T22:50:16.678Z,100.00
2022-09-26T22:52:44.931Z,100.00
2022-09-26T22:55:13.292Z,100.00
2022-09-26T22:57:41.237Z,100.00
2022-09-26T23:00:10.550Z,100.00
2022-09-26T23:02:39.985Z,100.00
2022-09-26T23:05:08.628Z,100.00
2022-09-26T23:07:36.614Z,100.00
2022-09-26T23:10:04.686Z,100.00
2022-09-26T23:12:32.658Z,100.00
2022-09-26T23:15:00.786Z,100.00
2022-09-26T23:17:29.015Z,100.00
2022-09-26T23:19:58.616Z,100.00
2022-09-26T23:22:26.529Z,100.00
2022-09-26T23:24:54.422Z,100.00
2022-09-26T23:27:26.217Z,100.00
2022-09-26T23:29:55.258Z,100.00
2022-09-26T23:32:23.255Z,100.00
2022-09-26T23:34:51.147Z,100.00
2022-09-26T23:37:20.434Z,100.00
2022-09-26T23:39:48.408Z,100.00
2022-09-26T23:42:16.320Z,100.00
2022-09-26T23:44:44.210Z,100.00
2022-09-26T23:47:12.155Z,100.00
2022-09-26T23:49:40.147Z,100.00
2022-09-26T23:52:08.042Z,100.00
2022-09-26T23:54:37.363Z,100.00
2022-09-26T23:57:05.322Z,100.00
2022-09-26T23:59:33.217Z,100.00
